createdAt,value
2019-04-01T00:00:36.487Z,41.15
2019-04-01T00:03:06.738Z,42.88
2019-04-01T00:05:36.178Z,44.45
2019-04-01T00:08:05.586Z,44.35
2019-04-01T00:10:35.031Z,58.45
2019-04-01T00:13:04.446Z,46.90
2019-04-01T00:15:33.884Z,47.60
2019-04-01T00:18:03.308Z,50.10
2019-04-01T00:20:32.739Z,46.68
2019-04-01T00:23:02.421Z,47.35
2019-04-01T00:25:31.963Z,53.23
2019-04-01T00:28:01.381Z,38.17
2019-04-01T00:30:30.824Z,43.98
2019-04-01T00:33:00.238Z,33.40
2019-04-01T00:35:29.684Z,37.13
2019-04-01T00:37:59.104Z,38.73
2019-04-01T00:40:28.556Z,43.23
2019-04-01T00:43:05.567Z,51.13
2019-04-01T00:45:36.644Z,61.30
2019-04-01T00:48:06.054Z,56.18
2019-04-01T00:50:35.501Z,53.73
2019-04-01T00:53:04.912Z,52.83
2019-04-01T00:55:34.407Z,59.55
2019-04-01T00:58:03.828Z,54.15
2019-04-01T01:00:33.289Z,61.85
2019-04-01T01:03:02.682Z,51.85
2019-04-01T01:05:32.128Z,50.40
2019-04-01T01:08:01.550Z,57.17
2019-04-01T01:10:31.121Z,56.40
2019-04-01T01:13:02.007Z,61.00
2019-04-01T01:15:31.490Z,60.92
2019-04-01T01:18:01.197Z,58.23
2019-04-01T01:20:30.644Z,56.70
2019-04-01T01:23:00.158Z,58.25
2019-04-01T01:25:29.581Z,64.05
2019-04-01T01:27:58.996Z,54.10
2019-04-01T01:30:28.437Z,57.25
2019-04-01T01:32:57.851Z,57.93
2019-04-01T01:35:27.291Z,73.05
2019-04-01T01:37:56.706Z,59.42
2019-04-01T01:40:26.149Z,63.08
2019-04-01T01:42:55.565Z,53.15
2019-04-01T01:45:24.999Z,54.63
2019-04-01T01:47:54.443Z,57.25
2019-04-01T01:50:23.850Z,53.25
2019-04-01T01:52:53.289Z,41.25
2019-04-01T01:55:22.704Z,45.98
2019-04-01T01:57:52.231Z,42.43
2019-04-01T02:00:22.510Z,35.28
2019-04-01T02:02:51.963Z,33.53
2019-04-01T02:05:21.388Z,32.85
2019-04-01T02:07:50.818Z,40.65
2019-04-01T02:10:20.530Z,34.38
2019-04-01T02:12:49.959Z,26.95
2019-04-01T02:15:19.371Z,23.70
2019-04-01T02:17:49.951Z,21.90
2019-04-01T02:20:19.703Z,18.00
2019-04-01T02:22:49.145Z,27.45
2019-04-01T02:25:18.556Z,21.75
2019-04-01T02:27:48.023Z,23.05
2019-04-01T02:30:17.635Z,22.62
2019-04-01T02:32:47.087Z,21.68
2019-04-01T02:35:16.497Z,22.25
2019-04-01T02:37:45.944Z,28.52
2019-04-01T02:40:15.368Z,34.25
2019-04-01T02:42:45.019Z,24.05
2019-04-01T02:45:15.813Z,24.92
2019-04-01T02:47:45.251Z,32.63
2019-04-01T02:50:14.817Z,55.38
2019-04-01T02:52:44.281Z,57.88
2019-04-01T02:55:13.698Z,59.90
2019-04-01T02:57:43.208Z,56.83
2019-04-01T03:00:12.631Z,51.77
2019-04-01T03:02:42.070Z,42.50
2019-04-01T03:05:12.248Z,32.75
2019-04-01T03:07:41.694Z,18.32
2019-04-01T03:10:11.232Z,17.37
2019-04-01T03:12:40.624Z,15.83
2019-04-01T03:15:10.038Z,15.68
2019-04-01T03:17:39.471Z,20.82
2019-04-01T03:20:09.042Z,21.20
2019-04-01T03:22:38.476Z,23.10
2019-04-01T03:25:07.888Z,20.50
2019-04-01T03:27:37.334Z,17.87
2019-04-01T03:30:06.742Z,21.90
2019-04-01T03:32:43.923Z,20.90
2019-04-01T03:35:07.316Z,25.65
2019-04-01T03:37:36.805Z,23.83
2019-04-01T03:40:06.490Z,27.27
2019-04-01T03:42:35.935Z,33.63
2019-04-01T03:45:06.116Z,29.77
2019-04-01T03:47:35.564Z,43.30
2019-04-01T03:50:05.444Z,56.75
2019-04-01T03:52:34.886Z,49.80
2019-04-01T03:55:04.672Z,61.77
2019-04-01T03:57:34.123Z,55.83
2019-04-01T04:00:05.364Z,59.30
2019-04-01T04:02:34.814Z,61.80
2019-04-01T04:05:06.040Z,67.17
2019-04-01T04:07:35.486Z,72.60
2019-04-01T04:10:06.475Z,61.70
2019-04-01T04:12:35.917Z,61.02
2019-04-01T04:15:06.086Z,72.32
2019-04-01T04:17:35.532Z,66.57
2019-04-01T04:20:05.214Z,70.05
2019-04-01T04:22:34.665Z,67.12
2019-04-01T04:25:05.119Z,71.28
2019-04-01T04:27:34.576Z,68.00
2019-04-01T04:30:05.545Z,74.03
2019-04-01T04:32:35.182Z,75.28
2019-04-01T04:35:05.636Z,81.95
2019-04-01T04:37:35.079Z,82.88
2019-04-01T04:40:06.428Z,86.30
2019-04-01T04:42:35.875Z,79.30
2019-04-01T04:45:06.441Z,72.50
2019-04-01T04:47:35.897Z,65.30
2019-04-01T04:50:05.474Z,79.07
2019-04-01T04:52:34.927Z,113.83
2019-04-01T04:55:05.206Z,101.87
2019-04-01T04:57:34.657Z,94.65
2019-04-01T05:00:06.416Z,85.70
2019-04-01T05:02:35.837Z,91.65
2019-04-01T05:05:06.469Z,84.72
2019-04-01T05:07:35.885Z,94.40
2019-04-01T05:10:07.478Z,87.12
2019-04-01T05:12:36.909Z,75.03
2019-04-01T05:15:07.348Z,74.90
2019-04-01T05:17:36.771Z,83.15
2019-04-01T05:20:06.330Z,84.75
2019-04-01T05:22:35.748Z,80.20
2019-04-01T05:25:05.480Z,79.97
2019-04-01T05:27:35.061Z,96.63
2019-04-01T05:30:07.656Z,90.25
2019-04-01T05:32:37.546Z,87.40
2019-04-01T05:35:07.063Z,86.55
2019-04-01T05:37:36.476Z,53.90
2019-04-01T05:40:06.156Z,88.20
2019-04-01T05:42:35.945Z,110.60
2019-04-01T05:45:06.837Z,58.30
2019-04-01T05:47:46.769Z,34.10
2019-04-01T05:50:16.246Z,47.08
2019-04-01T05:52:45.658Z,59.50
2019-04-01T05:55:15.104Z,46.18
2019-04-01T05:57:44.784Z,48.78
2019-04-01T06:00:20.986Z,46.75
2019-04-01T06:02:50.500Z,45.78
2019-04-01T06:05:20.060Z,48.13
2019-04-01T06:07:49.476Z,59.50
2019-04-01T06:10:19.408Z,65.95
2019-04-01T06:12:49.007Z,91.67
2019-04-01T06:15:21.364Z,40.08
2019-04-01T06:17:50.825Z,45.33
2019-04-01T06:20:20.264Z,45.80
2019-04-01T06:22:49.753Z,105.00
2019-04-01T06:25:19.244Z,45.10
2019-04-01T06:27:48.652Z,69.10
2019-04-01T06:30:18.109Z,53.30
2019-04-01T06:32:47.878Z,157.62
2019-04-01T06:35:17.355Z,82.22
2019-04-01T06:37:46.765Z,110.95
2019-04-01T06:40:16.228Z,270.45
2019-04-01T06:42:45.657Z,155.75
2019-04-01T06:45:15.101Z,59.10
2019-04-01T06:47:44.541Z,55.55
2019-04-01T06:50:13.991Z,50.85
2019-04-01T06:52:43.404Z,81.55
2019-04-01T06:55:12.849Z,96.95
2019-04-01T06:57:42.261Z,44.48
2019-04-01T07:00:11.707Z,46.25
2019-04-01T07:02:41.118Z,38.58
2019-04-01T07:05:12.625Z,45.45
2019-04-01T07:07:41.883Z,39.45
2019-04-01T07:10:11.335Z,196.45
2019-04-01T07:12:40.752Z,31.85
2019-04-01T07:15:10.201Z,30.70
2019-04-01T07:17:39.611Z,15.50
2019-04-01T07:20:09.264Z,18.62
2019-04-01T07:22:38.657Z,18.05
2019-04-01T07:25:08.099Z,20.25
2019-04-01T07:27:37.508Z,13.40
2019-04-01T07:30:06.958Z,16.17
2019-04-01T07:32:36.366Z,20.37
2019-04-01T07:35:05.816Z,37.65
2019-04-01T07:37:35.233Z,26.15
2019-04-01T07:40:05.706Z,19.42
2019-04-01T07:42:35.124Z,22.05
2019-04-01T07:45:06.580Z,20.90
2019-04-01T07:47:36.021Z,12.13
2019-04-01T07:50:06.253Z,13.45
2019-04-01T07:52:35.656Z,10.75
2019-04-01T07:55:06.438Z,14.55
2019-04-01T07:57:35.850Z,14.98
2019-04-01T08:00:08.216Z,12.43
2019-04-01T08:02:37.623Z,16.02
2019-04-01T08:05:07.078Z,13.55
2019-04-01T08:07:36.491Z,14.45
2019-04-01T08:10:07.102Z,26.37
2019-04-01T08:12:36.542Z,13.38
2019-04-01T08:15:07.051Z,10.30
2019-04-01T08:17:36.465Z,15.32
2019-04-01T08:20:05.984Z,9.53
2019-04-01T08:22:35.412Z,8.95
2019-04-01T08:25:06.487Z,9.43
2019-04-01T08:27:35.919Z,8.50
2019-04-01T08:30:08.306Z,5.17
2019-04-01T08:32:37.743Z,11.90
2019-04-01T08:35:07.153Z,4.87
2019-04-01T08:37:39.987Z,5.55
2019-04-01T08:40:07.693Z,7.37
2019-04-01T08:42:37.137Z,6.83
2019-04-01T08:45:09.474Z,9.20
2019-04-01T08:47:38.902Z,4.87
2019-04-01T08:50:08.316Z,5.42
2019-04-01T08:52:37.752Z,8.10
2019-04-01T08:55:07.402Z,5.92
2019-04-01T08:57:36.868Z,10.32
2019-04-01T09:00:08.990Z,2.47
2019-04-01T09:02:38.431Z,12.13
2019-04-01T09:05:07.835Z,8.85
2019-04-01T09:07:37.295Z,12.65
2019-04-01T09:10:06.698Z,3.75
2019-04-01T09:12:36.145Z,4.15
2019-04-01T09:15:07.187Z,1.50
2019-04-01T09:17:40.105Z,5.17
2019-04-01T09:20:07.728Z,3.80
2019-04-01T09:22:37.176Z,2.67
2019-04-01T09:25:06.595Z,3.08
2019-04-01T09:27:36.040Z,5.25
2019-04-01T09:30:08.653Z,7.80
2019-04-01T09:32:38.404Z,6.67
2019-04-01T09:35:07.816Z,37.08
2019-04-01T09:37:37.275Z,11.25
2019-04-01T09:40:07.348Z,3.95
2019-04-01T09:42:36.799Z,3.83
2019-04-01T09:45:07.344Z,68.07
2019-04-01T09:47:36.784Z,14.90
2019-04-01T09:50:06.208Z,14.20
2019-04-01T09:52:35.649Z,11.50
2019-04-01T09:55:06.442Z,7.33
2019-04-01T09:57:36.076Z,42.70
2019-04-01T10:00:08.438Z,5.83
2019-04-01T10:02:37.877Z,14.28
2019-04-01T10:05:07.451Z,4.75
2019-04-01T10:07:37.047Z,16.00
2019-04-01T10:10:06.590Z,71.77
2019-04-01T10:12:36.207Z,30.70
2019-04-01T10:15:06.991Z,10.28
2019-04-01T10:17:36.437Z,2.90
2019-04-01T10:20:07.987Z,29.65
2019-04-01T10:22:37.446Z,50.23
2019-04-01T10:25:06.863Z,3.87
2019-04-01T10:27:36.296Z,3.25
2019-04-01T10:30:07.615Z,10.32
2019-04-01T10:32:37.265Z,3.02
2019-04-01T10:35:07.147Z,3.37
2019-04-01T10:37:36.598Z,9.93
2019-04-01T10:40:07.075Z,6.22
2019-04-01T10:42:36.514Z,5.33
2019-04-01T10:45:08.635Z,15.32
2019-04-01T10:47:38.210Z,2.95
2019-04-01T10:50:07.701Z,3.20
2019-04-01T10:52:37.254Z,2.75
2019-04-01T10:55:06.667Z,4.78
2019-04-01T10:57:36.293Z,8.78
2019-04-01T11:00:08.507Z,13.58
2019-04-01T11:02:38.323Z,6.60
2019-04-01T11:05:08.176Z,4.75
2019-04-01T11:07:37.651Z,3.75
2019-04-01T11:10:11.724Z,4.40
2019-04-01T11:12:41.103Z,3.95
2019-04-01T11:15:10.541Z,8.08
2019-04-01T11:17:43.893Z,6.90
2019-04-01T11:20:13.986Z,4.65
2019-04-01T11:22:43.624Z,5.60
2019-04-01T11:25:13.073Z,2.33
2019-04-01T11:27:42.519Z,3.33
2019-04-01T11:30:13.859Z,110.72
2019-04-01T11:32:43.103Z,3.70
2019-04-01T11:35:12.536Z,4.25
2019-04-01T11:37:42.021Z,11.53
2019-04-01T11:40:12.366Z,3.42
2019-04-01T11:42:42.151Z,5.25
2019-04-01T11:45:11.907Z,5.12
2019-04-01T11:47:41.510Z,8.88
2019-04-01T11:50:10.994Z,4.25
2019-04-01T11:52:40.459Z,3.25
2019-04-01T11:55:09.943Z,5.08
2019-04-01T11:57:40.465Z,4.25
2019-04-01T12:00:17.545Z,3.12
2019-04-01T12:02:46.958Z,3.80
2019-04-01T12:05:19.627Z,6.30
2019-04-01T12:07:49.063Z,11.30
2019-04-01T12:10:18.528Z,3.33
2019-04-01T12:12:47.938Z,7.53
2019-04-01T12:15:17.436Z,4.47
2019-04-01T12:17:47.948Z,3.90
2019-04-01T12:20:17.416Z,2.65
2019-04-01T12:22:46.928Z,4.17
2019-04-01T12:25:16.383Z,6.58
2019-04-01T12:27:45.792Z,4.33
2019-04-01T12:30:15.231Z,5.58
2019-04-01T12:32:44.643Z,4.45
2019-04-01T12:35:14.123Z,56.00
2019-04-01T12:37:43.540Z,3.30
2019-04-01T12:40:12.984Z,2.85
2019-04-01T12:42:42.400Z,4.08
2019-04-01T12:45:11.843Z,5.00
2019-04-01T12:47:43.186Z,3.55
2019-04-01T12:50:12.488Z,2.47
2019-04-01T12:52:42.001Z,4.65
2019-04-01T12:55:11.456Z,24.12
2019-04-01T12:57:40.936Z,5.28
2019-04-01T13:00:11.850Z,10.98
2019-04-01T13:02:41.260Z,11.93
2019-04-01T13:05:10.706Z,9.58
2019-04-01T13:07:40.115Z,7.05
2019-04-01T13:10:09.620Z,18.50
2019-04-01T13:12:41.487Z,4.85
2019-04-01T13:15:13.137Z,8.03
2019-04-01T13:17:42.732Z,6.87
2019-04-01T13:20:13.949Z,4.42
2019-04-01T13:22:43.403Z,3.87
2019-04-01T13:25:13.048Z,9.33
2019-04-01T13:27:42.454Z,5.15
2019-04-01T13:30:12.137Z,18.10
2019-04-01T13:32:41.550Z,6.83
2019-04-01T13:35:10.992Z,10.35
2019-04-01T13:37:41.771Z,3.47
2019-04-01T13:40:11.235Z,14.33
2019-04-01T13:42:40.647Z,6.58
2019-04-01T13:45:10.093Z,6.47
2019-04-01T13:47:41.219Z,2.83
2019-04-01T13:50:10.644Z,8.73
2019-04-01T13:52:40.051Z,55.75
2019-04-01T13:55:10.094Z,4.30
2019-04-01T13:57:39.802Z,15.13
2019-04-01T14:00:09.296Z,3.58
2019-04-01T14:02:38.764Z,8.03
2019-04-01T14:05:08.879Z,5.25
2019-04-01T14:07:38.338Z,6.83
2019-04-01T14:10:07.851Z,3.80
2019-04-01T14:12:37.431Z,66.10
2019-04-01T14:15:07.017Z,6.35
2019-04-01T14:17:40.348Z,13.95
2019-04-01T14:20:10.241Z,5.05
2019-04-01T14:22:39.776Z,5.70
2019-04-01T14:25:09.185Z,21.52
2019-04-01T14:27:39.507Z,4.00
2019-04-01T14:30:09.147Z,18.02
2019-04-01T14:32:39.090Z,7.65
2019-04-01T14:35:08.505Z,20.27
2019-04-01T14:37:39.728Z,3.08
2019-04-01T14:40:09.178Z,4.65
2019-04-01T14:42:39.777Z,6.83
2019-04-01T14:45:09.686Z,6.25
2019-04-01T14:47:55.973Z,14.83
2019-04-01T14:50:10.727Z,10.53
2019-04-01T14:52:41.350Z,5.62
2019-04-01T14:55:11.110Z,5.03
2019-04-01T14:57:40.566Z,11.45
2019-04-01T15:00:12.018Z,14.83
2019-04-01T15:02:41.465Z,11.97
2019-04-01T15:05:10.981Z,5.50
2019-04-01T15:07:40.415Z,8.58
2019-04-01T15:10:10.400Z,3.52
2019-04-01T15:12:39.915Z,5.10
2019-04-01T15:15:09.977Z,9.55
2019-04-01T15:17:39.436Z,23.18
2019-04-01T15:20:08.868Z,13.25
2019-04-01T15:22:38.312Z,45.28
2019-04-01T15:25:08.000Z,6.60
2019-04-01T15:27:37.444Z,8.55
2019-04-01T15:30:08.100Z,8.93
2019-04-01T15:32:37.536Z,6.47
2019-04-01T15:35:07.520Z,7.75
2019-04-01T15:37:36.969Z,10.50
2019-04-01T15:40:07.165Z,218.17
2019-04-01T15:42:36.622Z,5.95
2019-04-01T15:45:06.426Z,18.23
2019-04-01T15:47:36.138Z,17.12
2019-04-01T15:50:06.312Z,20.00
2019-04-01T15:52:35.776Z,18.17
2019-04-01T15:55:07.866Z,13.00
2019-04-01T15:57:37.317Z,13.35
2019-04-01T16:00:06.814Z,33.98
2019-04-01T16:02:36.363Z,27.45
2019-04-01T16:05:07.224Z,14.05
2019-04-01T16:07:36.673Z,13.68
2019-04-01T16:10:06.153Z,16.82
2019-04-01T16:12:35.676Z,48.30
2019-04-01T16:15:06.846Z,42.73
2019-04-01T16:17:36.321Z,44.20
2019-04-01T16:20:08.420Z,38.33
2019-04-01T16:22:37.865Z,30.65
2019-04-01T16:25:07.453Z,25.75
2019-04-01T16:27:36.907Z,30.05
2019-04-01T16:30:07.973Z,20.45
2019-04-01T16:32:37.524Z,21.25
2019-04-01T16:35:07.022Z,22.13
2019-04-01T16:37:36.488Z,26.60
2019-04-01T16:40:06.456Z,23.77
2019-04-01T16:42:35.906Z,23.10
2019-04-01T16:45:06.897Z,29.82
2019-04-01T16:47:36.317Z,40.17
2019-04-01T16:50:09.430Z,23.92
2019-04-01T16:52:38.851Z,24.40
2019-04-01T16:55:08.295Z,19.00
2019-04-01T16:57:37.716Z,15.38
2019-04-01T17:00:08.964Z,30.00
2019-04-01T17:02:38.372Z,19.95
2019-04-01T17:05:07.879Z,16.95
2019-04-01T17:07:37.301Z,23.02
2019-04-01T17:10:07.412Z,15.15
2019-04-01T17:12:36.824Z,19.77
2019-04-01T17:15:06.270Z,24.57
2019-04-01T17:17:35.690Z,105.80
2019-04-01T17:20:06.384Z,17.73
2019-04-01T17:22:35.813Z,25.27
2019-04-01T17:25:06.696Z,24.92
2019-04-01T17:27:36.110Z,27.25
2019-04-01T17:30:11.470Z,30.00
2019-04-01T17:32:40.885Z,37.83
2019-04-01T17:35:10.354Z,33.98
2019-04-01T17:37:39.757Z,29.75
2019-04-01T17:40:10.526Z,42.93
2019-04-01T17:42:40.146Z,35.73
2019-04-01T17:45:16.235Z,38.80
2019-04-01T17:47:45.851Z,56.75
2019-04-01T17:50:15.425Z,46.30
2019-04-01T17:52:44.828Z,37.30
2019-04-01T17:55:14.272Z,30.00
2019-04-01T17:57:43.693Z,64.80
2019-04-01T18:00:17.753Z,62.53
2019-04-01T18:02:47.176Z,103.15
2019-04-01T18:05:16.651Z,66.42
2019-04-01T18:07:46.059Z,71.70
2019-04-01T18:10:15.511Z,58.40
2019-04-01T18:12:44.933Z,67.58
2019-04-01T18:15:16.097Z,42.33
2019-04-01T18:17:45.689Z,71.77
2019-04-01T18:20:15.309Z,38.45
2019-04-01T18:22:44.721Z,42.05
2019-04-01T18:25:14.178Z,38.90
2019-04-01T18:27:44.360Z,42.93
2019-04-01T18:30:14.691Z,44.45
2019-04-01T18:32:44.112Z,52.08
2019-04-01T18:35:13.577Z,44.00
2019-04-01T18:37:43.003Z,73.60
2019-04-01T18:40:12.540Z,63.40
2019-04-01T18:42:41.972Z,63.30
2019-04-01T18:45:11.426Z,62.55
2019-04-01T18:47:40.849Z,54.35
2019-04-01T18:50:10.300Z,83.78
2019-04-01T18:52:39.735Z,96.78
2019-04-01T18:55:09.172Z,101.00
2019-04-01T18:57:38.591Z,110.30
2019-04-01T19:00:09.676Z,95.70
2019-04-01T19:02:39.099Z,88.78
2019-04-01T19:05:10.034Z,106.72
2019-04-01T19:07:39.529Z,89.90
2019-04-01T19:10:09.013Z,99.07
2019-04-01T19:12:38.396Z,106.55
2019-04-01T19:15:09.857Z,76.53
2019-04-01T19:17:39.257Z,55.85
2019-04-01T19:20:08.848Z,78.22
2019-04-01T19:22:38.312Z,46.85
2019-04-01T19:25:07.743Z,56.63
2019-04-01T19:27:37.187Z,64.80
2019-04-01T19:30:07.348Z,57.98
2019-04-01T19:32:38.140Z,80.35
2019-04-01T19:35:09.476Z,104.17
2019-04-01T19:37:39.032Z,76.65
2019-04-01T19:40:08.451Z,86.32
2019-04-01T19:42:40.371Z,77.65
2019-04-01T19:45:11.963Z,74.07
2019-04-01T19:47:41.774Z,61.00
2019-04-01T19:50:11.189Z,74.97
2019-04-01T19:52:40.664Z,68.85
2019-04-01T19:55:10.355Z,77.62
2019-04-01T19:57:39.806Z,67.92
2019-04-01T20:00:09.223Z,64.58
2019-04-01T20:02:38.664Z,166.53
2019-04-01T20:05:08.110Z,52.17
2019-04-01T20:07:37.924Z,75.12
2019-04-01T20:10:07.347Z,107.70
2019-04-01T20:12:36.811Z,132.37
2019-04-01T20:15:11.935Z,113.55
2019-04-01T20:17:41.807Z,129.20
2019-04-01T20:20:14.251Z,116.20
2019-04-01T20:22:42.367Z,94.10
2019-04-01T20:25:14.678Z,152.85
2019-04-01T20:27:44.340Z,123.58
2019-04-01T20:30:15.104Z,108.17
2019-04-01T20:32:44.551Z,96.17
2019-04-01T20:35:23.289Z,99.07
2019-04-01T20:37:45.235Z,87.35
2019-04-01T20:40:14.607Z,78.85
2019-04-01T20:42:44.058Z,90.12
2019-04-01T20:45:13.823Z,89.30
2019-04-01T20:47:43.291Z,76.07
2019-04-01T20:50:13.884Z,91.80
2019-04-01T20:52:43.326Z,72.17
2019-04-01T20:55:13.496Z,76.55
2019-04-01T20:57:43.268Z,73.72
2019-04-01T21:00:12.683Z,59.63
2019-04-01T21:02:42.123Z,44.58
2019-04-01T21:05:11.537Z,44.60
2019-04-01T21:07:40.974Z,39.42
2019-04-01T21:10:10.392Z,32.20
2019-04-01T21:12:39.840Z,28.52
2019-04-01T21:15:09.284Z,29.20
2019-04-01T21:17:38.735Z,30.90
2019-04-01T21:20:08.222Z,34.85
2019-04-01T21:22:37.664Z,38.15
2019-04-01T21:25:07.219Z,32.10
2019-04-01T21:27:36.670Z,31.40
2019-04-01T21:30:10.840Z,31.12
2019-04-01T21:32:40.283Z,42.90
2019-04-01T21:35:09.776Z,34.38
2019-04-01T21:37:39.230Z,31.45
2019-04-01T21:40:08.647Z,26.90
2019-04-01T21:42:38.096Z,31.17
2019-04-01T21:45:08.384Z,34.48
2019-04-01T21:47:37.853Z,30.35
2019-04-01T21:50:07.269Z,32.60
2019-04-01T21:52:36.711Z,29.42
2019-04-01T21:55:08.294Z,30.48
2019-04-01T21:57:37.996Z,27.17
2019-04-01T22:00:09.849Z,42.08
2019-04-01T22:02:39.298Z,41.63
2019-04-01T22:05:10.165Z,25.70
2019-04-01T22:07:40.036Z,38.28
2019-04-01T22:10:11.079Z,27.42
2019-04-01T22:12:40.516Z,40.10
2019-04-01T22:15:09.973Z,37.93
2019-04-01T22:17:39.417Z,25.88
2019-04-01T22:20:10.217Z,25.17
2019-04-01T22:22:39.743Z,24.32
2019-04-01T22:25:09.187Z,20.17
2019-04-01T22:27:38.596Z,27.37
2019-04-01T22:30:08.105Z,25.43
2019-04-01T22:32:37.527Z,23.50
2019-04-01T22:35:08.588Z,32.17
2019-04-01T22:37:38.156Z,33.25
2019-04-01T22:40:07.603Z,34.25
2019-04-01T22:42:37.016Z,42.17
2019-04-01T22:45:07.336Z,38.17
2019-04-01T22:47:36.751Z,35.70
2019-04-01T22:50:06.870Z,24.63
2019-04-01T22:52:36.297Z,40.83
2019-04-01T22:55:06.198Z,36.60
2019-04-01T22:57:35.626Z,36.95
2019-04-01T23:00:05.734Z,24.82
2019-04-01T23:02:35.151Z,48.38
2019-04-01T23:05:05.989Z,35.20
2019-04-01T23:07:35.405Z,36.33
2019-04-01T23:10:06.554Z,31.48
2019-04-01T23:12:35.980Z,28.62
2019-04-01T23:15:06.859Z,28.87
2019-04-01T23:17:36.281Z,42.93
2019-04-01T23:20:05.990Z,34.25
2019-04-01T23:22:35.411Z,26.87
2019-04-01T23:25:05.591Z,29.92
2019-04-01T23:27:35.006Z,29.57
2019-04-01T23:30:07.668Z,23.12
2019-04-01T23:32:37.082Z,32.35
2019-04-01T23:35:07.405Z,25.88
2019-04-01T23:37:38.071Z,23.42
2019-04-01T23:40:07.841Z,22.70
2019-04-01T23:42:38.067Z,22.13
2019-04-01T23:45:08.345Z,25.75
2019-04-01T23:47:37.762Z,22.87
2019-04-01T23:50:09.153Z,20.35
2019-04-01T23:52:38.961Z,20.40
2019-04-01T23:55:08.405Z,22.00
2019-04-01T23:57:37.815Z,17.42
